Time;durP1;ratioP1;P1;durP2;ratioP2;P2;SDS_P1;SDS_P2;PMS_P1;PMS_P2;Temp;Humidity;BMP_temperature;BMP_pressure;BME280_temperature;BME280_humidity;BME280_pressure;Samples;Min_cycle;Max_cycle;Signal;HPM_P1;HPM_P2
2024/03/03 00:01:33;;;;;;;8.52;2.30;;;;;;;;;;5012781;28;20041;-77
2024/03/03 00:04:00;;;;;;;8.02;2.17;;;;;;;;;;5012764;28;20562;-77
2024/03/03 00:06:27;;;;;;;13.80;2.45;;;;;;;;;;5013937;28;20065;-76
2024/03/03 00:08:56;;;;;;;8.02;2.80;;;;;;;;;;5013670;28;20137;-76
2024/03/03 00:11:22;;;;;;;;;;;;;;;;;;5012943;28;20133;-80
2024/03/03 00:13:49;;;;;;;16.45;3.10;;;;;;;;;;5013340;28;19932;-82
2024/03/03 00:16:16;;;;;;;16.65;3.13;;;;;;;;;;4996071;28;20519;-79
2024/03/03 00:18:43;;;;;;;8.63;2.00;;;;;;;;;;5013955;28;20660;-77
2024/03/03 00:21:13;;;;;;;13.05;2.33;;;;;;;;;;5012931;28;20060;-77
2024/03/03 00:23:41;;;;;;;8.68;2.22;;;;;;;;;;5011100;28;20069;-76
2024/03/03 00:26:08;;;;;;;16.20;2.80;;;;;;;;;;5011796;28;20042;-77
2024/03/03 00:28:34;;;;;;;10.63;2.80;;;;;;;;;;5010941;28;20480;-77
2024/03/03 00:31:01;;;;;;;16.98;3.55;;;;;;;;;;5012957;28;20048;-76
2024/03/03 00:33:28;;;;;;;13.15;3.42;;;;;;;;;;5014106;28;20045;-77
2024/03/03 00:35:55;;;;;;;12.98;3.00;;;;;;;;;;5013166;28;20116;-76
2024/03/03 00:38:22;;;;;;;10.65;2.60;;;;;;;;;;5011681;28;20038;-77
2024/03/03 00:40:48;;;;;;;12.20;2.50;;;;;;;;;;5012713;28;20045;-77
2024/03/03 00:43:15;;;;;;;9.75;2.47;;;;;;;;;;5012075;28;20068;-77
2024/03/03 00:45:42;;;;;;;8.90;3.03;;;;;;;;;;5013762;28;20042;-76
2024/03/03 00:48:09;;;;;;;7.93;2.50;;;;;;;;;;5011922;28;20034;-77
2024/03/03 00:50:36;;;;;;;15.30;2.92;;;;;;;;;;5012005;28;20046;-76
2024/03/03 00:53:03;;;;;;;7.18;1.80;;;;;;;;;;5013609;28;20042;-76
2024/03/03 00:55:29;;;;;;;8.20;1.63;;;;;;;;;;5012005;28;20049;-76
2024/03/03 00:57:57;;;;;;;13.05;1.70;;;;;;;;;;4996050;28;20419;-77
2024/03/03 01:00:24;;;;;;;7.38;1.85;;;;;;;;;;4995616;28;20212;-76
2024/03/03 01:02:51;;;;;;;9.57;2.25;;;;;;;;;;5012037;28;20042;-77
2024/03/03 01:05:17;;;;;;;7.45;1.67;;;;;;;;;;5012997;28;20042;-77
2024/03/03 01:07:44;;;;;;;7.43;1.35;;;;;;;;;;5013352;28;20053;-76
2024/03/03 01:10:11;;;;;;;8.07;1.35;;;;;;;;;;5011493;28;20041;-77
2024/03/03 01:12:38;;;;;;;5.88;1.40;;;;;;;;;;5013138;28;20095;-76
2024/03/03 01:15:05;;;;;;;5.43;1.38;;;;;;;;;;5011648;28;20041;-76
2024/03/03 01:17:32;;;;;;;11.07;1.45;;;;;;;;;;5010518;28;20053;-77
2024/03/03 01:19:59;;;;;;;11.55;2.05;;;;;;;;;;5013309;28;20048;-77
2024/03/03 01:22:26;;;;;;;15.40;1.63;;;;;;;;;;5011507;28;20129;-77
2024/03/03 01:24:52;;;;;;;7.00;1.20;;;;;;;;;;5011845;28;20038;-77
2024/03/03 01:27:19;;;;;;;6.55;1.08;;;;;;;;;;5012940;28;20042;-77
2024/03/03 01:29:46;;;;;;;3.90;1.05;;;;;;;;;;5012874;28;20057;-76
2024/03/03 01:32:13;;;;;;;9.75;1.00;;;;;;;;;;4994602;28;20393;-76
2024/03/03 01:34:41;;;;;;;5.40;1.33;;;;;;;;;;4995421;28;20491;-77
2024/03/03 01:37:08;;;;;;;5.95;0.90;;;;;;;;;;5011396;28;20113;-77
2024/03/03 01:39:36;;;;;;;8.35;1.23;;;;;;;;;;5012790;28;20042;-76
2024/03/03 01:42:04;;;;;;;2.72;1.10;;;;;;;;;;5012730;28;21265;-77
2024/03/03 01:44:30;;;;;;;6.22;1.30;;;;;;;;;;5009109;28;20045;-77
2024/03/03 01:46:58;;;;;;;9.40;1.27;;;;;;;;;;5011426;28;20477;-77
2024/03/03 01:49:26;;;;;;;3.35;0.60;;;;;;;;;;5011115;28;20042;-76
2024/03/03 01:51:53;;;;;;;9.35;1.00;;;;;;;;;;5013146;28;20042;-77
2024/03/03 01:54:20;;;;;;;8.60;0.90;;;;;;;;;;5012723;28;20396;-77
2024/03/03 01:56:49;;;;;;;6.40;0.90;;;;;;;;;;5013236;28;20591;-77
2024/03/03 01:59:16;;;;;;;6.03;0.70;;;;;;;;;;5011382;28;20056;-77
2024/03/03 02:01:44;;;;;;;22.40;1.27;;;;;;;;;;5011773;28;20485;-77
2024/03/03 02:04:12;;;;;;;8.32;0.82;;;;;;;;;;5011438;28;20137;-77
2024/03/03 02:06:41;;;;;;;8.50;1.23;;;;;;;;;;5013183;28;20053;-77
2024/03/03 02:09:10;;;;;;;3.25;0.75;;;;;;;;;;5012588;28;20447;-77
2024/03/03 02:11:38;;;;;;;4.05;0.90;;;;;;;;;;4995682;28;20042;-77
2024/03/03 02:14:04;;;;;;;4.50;0.65;;;;;;;;;;5014372;28;20053;-76
2024/03/03 02:16:31;;;;;;;7.18;0.60;;;;;;;;;;4999905;28;20046;-77
2024/03/03 02:18:58;;;;;;;4.90;0.80;;;;;;;;;;5016963;28;20509;-77
2024/03/03 02:21:25;;;;;;;0.98;0.50;;;;;;;;;;5016737;28;20368;-76
2024/03/03 02:23:52;;;;;;;1.90;0.55;;;;;;;;;;5017226;28;20138;-77
2024/03/03 02:26:23;;;;;;;2.60;0.40;;;;;;;;;;5015112;28;20052;-77
2024/03/03 02:28:51;;;;;;;7.57;0.73;;;;;;;;;;5017223;28;20046;-76
2024/03/03 02:31:18;;;;;;;6.68;0.60;;;;;;;;;;5016543;28;20054;-77
2024/03/03 02:33:45;;;;;;;2.85;0.30;;;;;;;;;;5016910;28;20053;-77
2024/03/03 02:36:12;;;;;;;5.13;0.60;;;;;;;;;;5016413;28;20049;-77
2024/03/03 02:38:49;;;;;;;2.00;0.55;;;;;;;;;;5031834;28;20046;-77
2024/03/03 02:41:16;;;;;;;2.28;0.40;;;;;;;;;;5016202;28;20050;-76
2024/03/03 02:43:42;;;;;;;2.50;0.40;;;;;;;;;;5016766;28;20041;-77
2024/03/03 02:46:09;;;;;;;6.07;0.40;;;;;;;;;;5015002;28;20046;-75
2024/03/03 02:48:36;;;;;;;2.45;0.32;;;;;;;;;;5015308;28;20049;-77
2024/03/03 02:51:02;;;;;;;3.53;0.40;;;;;;;;;;5015143;28;20054;-77
2024/03/03 02:53:29;;;;;;;4.95;0.40;;;;;;;;;;5006727;28;20048;-77
2024/03/03 02:55:56;;;;;;;6.60;1.55;;;;;;;;;;5016761;28;20042;-76
2024/03/03 02:58:22;;;;;;;4.22;0.40;;;;;;;;;;4998512;28;20042;-77
2024/03/03 03:00:50;;;;;;;2.10;0.45;;;;;;;;;;5016368;28;20480;-77
2024/03/03 03:03:16;;;;;;;4.50;0.57;;;;;;;;;;5014278;28;20172;-77
2024/03/03 03:05:43;;;;;;;2.08;0.30;;;;;;;;;;5016331;28;20050;-76
2024/03/03 03:08:10;;;;;;;2.17;0.43;;;;;;;;;;5015548;28;20038;-76
2024/03/03 03:10:37;;;;;;;3.65;0.38;;;;;;;;;;5016423;28;20052;-77
2024/03/03 03:13:04;;;;;;;3.70;0.57;;;;;;;;;;5015755;28;20128;-76
2024/03/03 03:15:35;;;;;;;3.08;0.57;;;;;;;;;;5014712;28;20358;-77
2024/03/03 03:18:05;;;;;;;2.85;0.75;;;;;;;;;;5016143;28;20053;-76
2024/03/03 03:20:32;;;;;;;2.72;0.52;;;;;;;;;;5014353;28;20046;-76
2024/03/03 03:22:59;;;;;;;3.90;0.47;;;;;;;;;;5014696;28;20048;-77
2024/03/03 03:25:25;;;;;;;2.15;0.38;;;;;;;;;;5014165;28;20038;-77
2024/03/03 03:27:52;;;;;;;1.60;0.40;;;;;;;;;;5015720;28;20452;-76
2024/03/03 03:30:19;;;;;;;3.25;0.50;;;;;;;;;;5014063;28;20120;-77
2024/03/03 03:32:46;;;;;;;5.60;0.45;;;;;;;;;;5015746;28;20054;-77
2024/03/03 03:35:13;;;;;;;5.38;1.67;;;;;;;;;;5013427;28;20149;-76
2024/03/03 03:37:40;;;;;;;5.95;0.63;;;;;;;;;;5015702;28;20046;-77
2024/03/03 03:40:09;;;;;;;1.90;0.40;;;;;;;;;;5015095;28;20476;-76
2024/03/03 03:42:37;;;;;;;5.50;0.93;;;;;;;;;;5015738;28;20042;-76
2024/03/03 03:45:05;;;;;;;2.95;0.70;;;;;;;;;;5015786;28;20360;-76
2024/03/03 03:47:32;;;;;;;3.28;0.93;;;;;;;;;;5013597;28;20045;-76
2024/03/03 03:49:59;;;;;;;4.33;0.30;;;;;;;;;;5014372;28;20046;-77
2024/03/03 03:52:27;;;;;;;3.80;0.40;;;;;;;;;;4997456;28;20269;-77
2024/03/03 03:54:53;;;;;;;2.65;0.50;;;;;;;;;;5014088;28;20129;-77
2024/03/03 03:57:20;;;;;;;1.40;0.30;;;;;;;;;;5013522;28;20048;-76
2024/03/03 03:59:47;;;;;;;7.50;0.40;;;;;;;;;;4997731;28;20096;-77
2024/03/03 04:02:14;;;;;;;4.28;0.52;;;;;;;;;;5014930;28;20065;-76
2024/03/03 04:04:40;;;;;;;4.15;0.43;;;;;;;;;;5014049;28;20038;-76
2024/03/03 04:07:07;;;;;;;2.60;0.38;;;;;;;;;;5014667;28;20100;-77
2024/03/03 04:09:34;;;;;;;2.33;0.40;;;;;;;;;;5014958;28;20054;-77
2024/03/03 04:12:01;;;;;;;1.65;0.30;;;;;;;;;;5014023;28;20053;-77
2024/03/03 04:14:27;;;;;;;4.68;0.52;;;;;;;;;;5014322;28;20121;-77
2024/03/03 04:16:54;;;;;;;2.85;0.50;;;;;;;;;;5013672;28;20073;-76
2024/03/03 04:19:21;;;;;;;1.38;0.38;;;;;;;;;;5013314;28;20052;-77
2024/03/03 04:21:47;;;;;;;6.97;0.85;;;;;;;;;;5013687;28;20125;-77
2024/03/03 04:24:14;;;;;;;4.85;0.60;;;;;;;;;;5013040;28;20056;-77
2024/03/03 04:26:42;;;;;;;2.00;0.43;;;;;;;;;;4996222;28;20054;-76
2024/03/03 04:29:09;;;;;;;0.80;0.30;;;;;;;;;;4993439;28;20065;-76
2024/03/03 04:31:45;;;;;;;2.03;0.60;;;;;;;;;;4995075;28;20050;-77
2024/03/03 04:34:11;;;;;;;2.20;0.50;;;;;;;;;;4999633;28;20423;-77
2024/03/03 04:36:43;;;;;;;3.92;0.50;;;;;;;;;;5012710;28;20050;-77
2024/03/03 04:39:11;;;;;;;1.60;0.40;;;;;;;;;;5014199;28;20092;-77
2024/03/03 04:41:37;;;;;;;1.60;0.47;;;;;;;;;;4995107;28;20050;-76
2024/03/03 04:44:05;;;;;;;2.05;0.32;;;;;;;;;;4993314;28;20046;-76
2024/03/03 04:46:32;;;;;;;1.85;0.30;;;;;;;;;;4993585;28;20043;-77
2024/03/03 04:48:58;;;;;;;2.50;0.60;;;;;;;;;;4994597;28;20385;-77
2024/03/03 04:51:25;;;;;;;6.25;0.70;;;;;;;;;;4976748;28;20049;-77
2024/03/03 04:53:52;;;;;;;3.25;0.47;;;;;;;;;;4994666;28;20130;-77
2024/03/03 04:56:19;;;;;;;4.13;0.55;;;;;;;;;;4994278;28;20174;-76
2024/03/03 04:58:46;;;;;;;4.53;0.73;;;;;;;;;;4994521;28;20077;-77
2024/03/03 05:01:13;;;;;;;3.45;0.50;;;;;;;;;;4992799;28;20039;-77
2024/03/03 05:03:42;;;;;;;4.25;0.50;;;;;;;;;;4993253;28;20073;-77
2024/03/03 05:06:09;;;;;;;3.42;0.45;;;;;;;;;;4993201;28;20088;-77
2024/03/03 05:08:36;;;;;;;3.97;0.40;;;;;;;;;;4992848;28;20050;-77
2024/03/03 05:11:03;;;;;;;4.10;1.27;;;;;;;;;;4994657;28;20050;-77
2024/03/03 05:13:30;;;;;;;2.70;0.68;;;;;;;;;;4985083;28;20050;-77
2024/03/03 05:15:56;;;;;;;5.45;0.60;;;;;;;;;;4994153;28;20360;-77
2024/03/03 05:18:23;;;;;;;3.60;0.50;;;;;;;;;;4993801;28;20142;-77
2024/03/03 05:20:50;;;;;;;7.85;1.90;;;;;;;;;;4976642;28;20049;-77
2024/03/03 05:23:18;;;;;;;3.97;2.08;;;;;;;;;;4993854;28;20054;-77
2024/03/03 05:25:45;;;;;;;4.50;0.80;;;;;;;;;;5003383;28;20488;-76
2024/03/03 05:28:13;;;;;;;5.15;1.42;;;;;;;;;;5013012;28;20050;-77
2024/03/03 05:30:40;;;;;;;5.63;2.85;;;;;;;;;;5012471;28;20385;-77
2024/03/03 05:33:08;;;;;;;2.47;1.02;;;;;;;;;;5013128;28;20073;-76
2024/03/03 05:35:36;;;;;;;4.47;0.95;;;;;;;;;;5011961;28;20499;-77
2024/03/03 05:38:03;;;;;;;4.85;0.63;;;;;;;;;;5012413;28;20133;-77
2024/03/03 05:40:30;;;;;;;2.20;0.50;;;;;;;;;;5013124;28;20046;-77
2024/03/03 05:42:57;;;;;;;3.80;0.80;;;;;;;;;;5012306;28;20491;-77
2024/03/03 05:45:24;;;;;;;2.20;1.02;;;;;;;;;;5011345;28;20065;-78
2024/03/03 05:47:50;;;;;;;3.90;0.70;;;;;;;;;;5012867;28;20041;-77
2024/03/03 05:50:17;;;;;;;3.97;0.60;;;;;;;;;;5012581;28;20070;-76
2024/03/03 05:52:44;;;;;;;3.28;0.70;;;;;;;;;;5012319;28;20531;-77
2024/03/03 05:55:11;;;;;;;3.88;0.68;;;;;;;;;;5012977;28;20054;-77
2024/03/03 05:57:38;;;;;;;3.78;1.15;;;;;;;;;;5011813;28;20077;-76
2024/03/03 06:00:05;;;;;;;4.50;0.80;;;;;;;;;;5012997;28;20046;-76
2024/03/03 06:02:32;;;;;;;3.03;0.50;;;;;;;;;;5013084;28;20556;-76
2024/03/03 06:04:59;;;;;;;2.28;0.70;;;;;;;;;;4995753;28;20046;-76
2024/03/03 06:07:26;;;;;;;0.77;0.40;;;;;;;;;;5013124;28;20538;-77
2024/03/03 06:09:52;;;;;;;6.78;0.70;;;;;;;;;;5012955;28;20037;-76
2024/03/03 06:12:19;;;;;;;3.42;0.85;;;;;;;;;;5012867;28;20042;-76
2024/03/03 06:14:47;;;;;;;5.05;0.55;;;;;;;;;;5012789;28;20099;-77
2024/03/03 06:17:15;;;;;;;8.90;0.80;;;;;;;;;;5011635;28;20045;-76
2024/03/03 06:19:41;;;;;;;4.75;0.90;;;;;;;;;;5011840;28;20053;-76
2024/03/03 06:22:08;;;;;;;3.50;0.60;;;;;;;;;;5012522;28;20046;-77
2024/03/03 06:24:36;;;;;;;4.35;0.60;;;;;;;;;;5011541;28;20042;-77
2024/03/03 06:27:03;;;;;;;3.92;0.77;;;;;;;;;;4992000;28;20141;-77
2024/03/03 06:29:30;;;;;;;3.58;0.82;;;;;;;;;;4993083;28;20050;-76
2024/03/03 06:31:56;;;;;;;9.93;1.65;;;;;;;;;;4993328;28;20050;-77
2024/03/03 06:34:23;;;;;;;6.38;1.30;;;;;;;;;;4999370;28;20049;-76
2024/03/03 06:36:50;;;;;;;8.30;1.10;;;;;;;;;;5012843;28;20115;-77
2024/03/03 06:39:17;;;;;;;6.40;1.00;;;;;;;;;;5012123;28;20129;-77
2024/03/03 06:41:44;;;;;;;5.32;0.50;;;;;;;;;;5011744;28;20050;-76
2024/03/03 06:44:16;;;;;;;6.90;0.90;;;;;;;;;;4994843;28;20441;-76
2024/03/03 06:46:45;;;;;;;5.93;0.70;;;;;;;;;;5011560;28;20042;-76
2024/03/03 06:49:13;;;;;;;6.13;0.98;;;;;;;;;;5012008;28;20141;-77
2024/03/03 06:51:39;;;;;;;7.28;1.40;;;;;;;;;;5011522;28;20046;-76
2024/03/03 06:54:06;;;;;;;4.25;0.60;;;;;;;;;;5012102;28;20050;-77
2024/03/03 06:56:33;;;;;;;5.05;0.90;;;;;;;;;;5011247;28;20480;-77
2024/03/03 06:59:00;;;;;;;11.52;1.40;;;;;;;;;;4995071;28;20052;-77
2024/03/03 07:01:27;;;;;;;11.43;1.00;;;;;;;;;;5015803;28;20045;-76
2024/03/03 07:06:23;;;;;;;5.70;0.85;;;;;;;;;;5015994;28;20054;-76
2024/03/03 07:08:50;;;;;;;9.20;1.27;;;;;;;;;;5014935;28;20048;-76
2024/03/03 07:11:17;;;;;;;7.90;1.10;;;;;;;;;;5015444;28;20495;-76
2024/03/03 07:13:44;;;;;;;9.45;1.27;;;;;;;;;;5013928;28;20096;-77
2024/03/03 07:16:11;;;;;;;11.18;1.60;;;;;;;;;;5012758;28;20118;-76
2024/03/03 07:18:37;;;;;;;9.35;1.00;;;;;;;;;;5013754;28;20564;-77
2024/03/03 07:21:04;;;;;;;8.20;1.27;;;;;;;;;;5013935;28;20042;-75
2024/03/03 07:23:31;;;;;;;16.20;2.58;;;;;;;;;;5014844;28;20104;-77
2024/03/03 07:25:57;;;;;;;8.05;1.17;;;;;;;;;;5014422;28;20099;-76
2024/03/03 07:28:24;;;;;;;7.25;1.33;;;;;;;;;;5013899;28;20056;-77
2024/03/03 07:30:51;;;;;;;6.47;1.90;;;;;;;;;;4993225;28;20043;-76
2024/03/03 07:33:17;;;;;;;10.95;1.58;;;;;;;;;;5004017;28;20480;-76
2024/03/03 07:35:44;;;;;;;11.90;1.23;;;;;;;;;;5013643;28;20065;-77
2024/03/03 07:38:11;;;;;;;7.13;1.10;;;;;;;;;;5013604;28;20064;-77
2024/03/03 07:40:38;;;;;;;9.05;1.40;;;;;;;;;;5012914;28;20049;-77
2024/03/03 07:43:05;;;;;;;9.90;1.40;;;;;;;;;;5013521;28;20399;-76
2024/03/03 07:45:32;;;;;;;9.50;1.50;;;;;;;;;;5011889;28;20050;-77
2024/03/03 07:47:59;;;;;;;9.18;1.55;;;;;;;;;;5011096;28;20423;-76
2024/03/03 07:50:25;;;;;;;15.50;2.00;;;;;;;;;;5012140;28;20049;-77
2024/03/03 07:52:52;;;;;;;11.75;2.15;;;;;;;;;;4994651;28;20034;-77
2024/03/03 07:55:19;;;;;;;11.82;1.77;;;;;;;;;;5011640;28;20500;-76
2024/03/03 07:57:46;;;;;;;20.05;2.13;;;;;;;;;;5010833;28;20053;-77
2024/03/03 08:00:13;;;;;;;13.60;1.70;;;;;;;;;;5010955;28;20452;-77
2024/03/03 08:02:40;;;;;;;15.70;2.63;;;;;;;;;;5012686;28;20042;-77
2024/03/03 08:05:06;;;;;;;9.85;2.33;;;;;;;;;;5010230;28;20137;-77
2024/03/03 08:07:33;;;;;;;12.75;1.90;;;;;;;;;;4997853;28;20069;-77
2024/03/03 08:10:00;;;;;;;30.73;3.38;;;;;;;;;;5010531;28;20046;-77
2024/03/03 08:12:29;;;;;;;15.40;2.33;;;;;;;;;;5010516;28;20056;-77
2024/03/03 08:14:55;;;;;;;16.20;1.92;;;;;;;;;;5011584;28;20072;-77
2024/03/03 08:17:22;;;;;;;13.38;1.85;;;;;;;;;;5011478;28;20049;-77
2024/03/03 08:19:49;;;;;;;15.63;2.40;;;;;;;;;;5011239;28;20046;-77
2024/03/03 08:22:15;;;;;;;15.45;2.03;;;;;;;;;;5000375;28;20042;-77
2024/03/03 08:24:42;;;;;;;13.93;2.42;;;;;;;;;;5013103;28;20481;-77
2024/03/03 08:27:09;;;;;;;14.50;1.70;;;;;;;;;;5012166;28;20038;-77
2024/03/03 08:29:36;;;;;;;19.48;2.47;;;;;;;;;;5013189;28;20113;-77
2024/03/03 08:32:03;;;;;;;20.55;2.67;;;;;;;;;;5013425;28;20048;-77
2024/03/03 08:34:31;;;;;;;23.50;2.47;;;;;;;;;;5012828;28;20100;-77
2024/03/03 08:36:58;;;;;;;14.23;2.40;;;;;;;;;;5014123;28;20034;-77
2024/03/03 08:39:25;;;;;;;16.33;1.60;;;;;;;;;;4993957;28;20053;-77
2024/03/03 08:41:52;;;;;;;12.90;2.25;;;;;;;;;;5011539;28;20045;-77
2024/03/03 08:44:18;;;;;;;17.33;2.60;;;;;;;;;;5011309;28;20042;-77
2024/03/03 08:46:50;;;;;;;10.98;1.67;;;;;;;;;;5010593;28;20088;-77
2024/03/03 08:49:17;;;;;;;19.33;2.85;;;;;;;;;;5018981;28;20054;-80
2024/03/03 08:51:45;;;;;;;12.05;2.03;;;;;;;;;;5002659;28;20133;-77
2024/03/03 08:54:11;;;;;;;11.38;1.88;;;;;;;;;;5014237;28;20080;-77
2024/03/03 08:56:39;;;;;;;14.52;2.35;;;;;;;;;;5011574;28;20484;-77
2024/03/03 08:59:06;;;;;;;11.73;2.33;;;;;;;;;;5011014;28;20365;-77
2024/03/03 09:01:32;;;;;;;12.25;2.28;;;;;;;;;;5012884;28;20057;-85
2024/03/03 09:04:00;;;;;;;15.23;1.80;;;;;;;;;;5012908;28;20037;-77
2024/03/03 09:06:27;;;;;;;15.05;1.88;;;;;;;;;;5011000;28;20038;-77
2024/03/03 09:08:54;;;;;;;17.23;1.48;;;;;;;;;;5012131;28;20041;-77
2024/03/03 09:11:21;;;;;;;11.10;1.70;;;;;;;;;;4994556;28;20141;-78
2024/03/03 09:13:47;;;;;;;11.68;1.52;;;;;;;;;;5012277;28;20357;-78
2024/03/03 09:16:14;;;;;;;13.70;1.80;;;;;;;;;;5011844;28;20129;-77
2024/03/03 09:18:41;;;;;;;12.73;1.92;;;;;;;;;;5012199;28;20052;-77
2024/03/03 09:21:08;;;;;;;17.02;2.00;;;;;;;;;;4991031;28;20137;-77
2024/03/03 09:23:35;;;;;;;11.57;1.70;;;;;;;;;;5009510;28;20050;-77
2024/03/03 09:26:02;;;;;;;12.98;1.50;;;;;;;;;;5010870;28;20042;-78
2024/03/03 09:28:29;;;;;;;8.63;1.38;;;;;;;;;;5010009;28;20053;-78
2024/03/03 09:30:56;;;;;;;10.90;1.80;;;;;;;;;;5010674;28;20046;-78
2024/03/03 09:33:23;;;;;;;14.23;1.88;;;;;;;;;;5011476;28;20050;-78
2024/03/03 09:35:51;;;;;;;7.15;1.27;;;;;;;;;;5011624;28;20495;-77
2024/03/03 09:38:18;;;;;;;13.43;2.10;;;;;;;;;;5011765;28;20049;-77
2024/03/03 09:40:45;;;;;;;8.48;1.50;;;;;;;;;;5003315;28;20056;-77
2024/03/03 09:43:18;;;;;;;9.77;1.65;;;;;;;;;;5010072;28;20082;-77
2024/03/03 09:45:48;;;;;;;8.00;1.40;;;;;;;;;;5011176;28;20041;-77
2024/03/03 09:48:14;;;;;;;15.90;2.08;;;;;;;;;;5011365;28;20046;-76
2024/03/03 09:50:42;;;;;;;9.48;2.53;;;;;;;;;;5009326;28;20046;-77
2024/03/03 09:53:09;;;;;;;16.50;2.08;;;;;;;;;;5009733;28;20049;-77
2024/03/03 09:55:37;;;;;;;7.53;1.60;;;;;;;;;;4992708;28;20073;-77
2024/03/03 09:58:07;;;;;;;10.32;1.75;;;;;;;;;;5009036;28;20045;-77
2024/03/03 10:00:37;;;;;;;8.00;1.30;;;;;;;;;;5009210;28;20050;-77
2024/03/03 10:03:06;;;;;;;11.15;1.70;;;;;;;;;;4994198;28;20042;-78
2024/03/03 10:05:40;;;;;;;9.82;1.88;;;;;;;;;;5011123;28;20128;-77
2024/03/03 10:08:10;;;;;;;12.35;1.27;;;;;;;;;;5011328;28;20490;-77
2024/03/03 10:10:42;;;;;;;10.70;1.30;;;;;;;;;;5011235;28;20040;-77
2024/03/03 10:13:15;;;;;;;7.45;1.58;;;;;;;;;;5008367;28;20072;-77
2024/03/03 10:15:45;;;;;;;8.48;1.30;;;;;;;;;;5010203;28;20568;-77
2024/03/03 10:18:12;;;;;;;7.40;1.10;;;;;;;;;;5009340;28;20045;-77
2024/03/03 10:20:38;;;;;;;7.63;1.30;;;;;;;;;;5011342;28;20480;-77
2024/03/03 10:23:05;;;;;;;8.38;1.48;;;;;;;;;;5008792;28;20046;-77
2024/03/03 10:25:32;;;;;;;13.93;1.63;;;;;;;;;;5010017;28;20108;-77
2024/03/03 10:28:13;;;;;;;7.20;1.75;;;;;;;;;;5010003;28;20464;-77
2024/03/03 10:30:40;;;;;;;14.88;2.50;;;;;;;;;;4998614;28;20077;-77
2024/03/03 10:33:07;;;;;;;7.75;1.33;;;;;;;;;;5009480;28;20076;-77
2024/03/03 10:35:34;;;;;;;11.38;1.90;;;;;;;;;;5003874;28;20476;-77
2024/03/03 10:38:03;;;;;;;12.70;2.50;;;;;;;;;;5015264;28;20484;-76
2024/03/03 10:40:33;;;;;;;12.65;1.65;;;;;;;;;;5009988;28;20062;-77
2024/03/03 10:43:00;;;;;;;11.00;1.50;;;;;;;;;;5015128;28;20449;-77
2024/03/03 10:45:27;;;;;;;16.50;2.33;;;;;;;;;;5014340;28;20038;-77
2024/03/03 10:47:54;;;;;;;10.48;1.60;;;;;;;;;;5014872;28;20148;-77
2024/03/03 10:50:22;;;;;;;9.43;1.92;;;;;;;;;;5013864;28;20101;-77
2024/03/03 10:52:50;;;;;;;14.70;2.25;;;;;;;;;;4997087;28;20056;-77
2024/03/03 10:55:17;;;;;;;8.27;1.85;;;;;;;;;;4993282;28;20068;-78
2024/03/03 10:57:45;;;;;;;10.13;1.70;;;;;;;;;;5013379;28;20050;-77
2024/03/03 11:00:16;;;;;;;8.55;1.67;;;;;;;;;;5012839;28;20116;-77
2024/03/03 11:02:44;;;;;;;15.15;1.65;;;;;;;;;;5005286;28;20053;-77
2024/03/03 11:05:15;;;;;;;;;;;;;;;;;;5014376;28;20049;-77
2024/03/03 11:07:43;;;;;;;15.27;1.60;;;;;;;;;;5014576;28;19922;-77
2024/03/03 11:10:11;;;;;;;14.70;1.58;;;;;;;;;;4996467;28;20040;-77
2024/03/03 11:12:42;;;;;;;11.32;2.17;;;;;;;;;;5020592;28;20046;-77
2024/03/03 11:15:12;;;;;;;6.53;0.98;;;;;;;;;;5013671;28;20050;-77
2024/03/03 11:17:43;;;;;;;9.57;1.75;;;;;;;;;;5014593;28;20527;-77
2024/03/03 11:20:17;;;;;;;10.20;1.60;;;;;;;;;;5013915;28;20361;-77
2024/03/03 11:22:52;;;;;;;13.55;1.85;;;;;;;;;;5014698;28;20096;-75
2024/03/03 11:25:22;;;;;;;14.90;1.05;;;;;;;;;;5011626;28;20038;-77
2024/03/03 11:27:56;;;;;;;6.47;1.02;;;;;;;;;;5013053;28;20046;-76
2024/03/03 11:30:23;;;;;;;6.45;1.20;;;;;;;;;;5014010;28;20092;-76
2024/03/03 11:32:51;;;;;;;9.05;1.23;;;;;;;;;;5014868;28;20042;-77
2024/03/03 11:35:19;;;;;;;4.32;0.90;;;;;;;;;;5013354;28;20042;-77
2024/03/03 11:37:47;;;;;;;9.00;1.25;;;;;;;;;;4996379;28;20136;-77
2024/03/03 11:40:16;;;;;;;6.95;1.58;;;;;;;;;;5013109;28;20480;-77
2024/03/03 11:42:46;;;;;;;10.20;1.48;;;;;;;;;;5014413;28;20042;-77
2024/03/03 11:45:13;;;;;;;6.57;1.33;;;;;;;;;;5013670;28;20049;-77
2024/03/03 11:47:49;;;;;;;9.93;1.10;;;;;;;;;;5011306;28;20452;-76
2024/03/03 11:50:20;;;;;;;12.07;1.48;;;;;;;;;;5011366;28;20100;-76
2024/03/03 11:52:51;;;;;;;6.18;0.93;;;;;;;;;;5001710;28;20042;-79
2024/03/03 11:55:27;;;;;;;9.68;1.45;;;;;;;;;;5013774;28;20042;-78
2024/03/03 11:57:55;;;;;;;5.07;1.13;;;;;;;;;;5013589;28;20048;-78
2024/03/03 12:00:27;;;;;;;13.00;1.00;;;;;;;;;;5012918;28;20050;-78
2024/03/03 12:02:55;;;;;;;9.63;1.10;;;;;;;;;;4997395;28;20046;-78
2024/03/03 12:05:23;;;;;;;8.00;1.20;;;;;;;;;;5011123;28;20046;-78
2024/03/03 12:07:54;;;;;;;4.43;1.27;;;;;;;;;;4992143;28;20100;-76
2024/03/03 12:10:30;;;;;;;5.68;1.10;;;;;;;;;;5012511;28;20412;-78
2024/03/03 12:12:59;;;;;;;7.68;1.40;;;;;;;;;;5012283;28;20038;-78
2024/03/03 12:15:27;;;;;;;9.43;1.25;;;;;;;;;;5015466;28;20041;-79
2024/03/03 12:17:56;;;;;;;8.85;1.23;;;;;;;;;;5015318;28;20420;-78
2024/03/03 12:20:25;;;;;;;6.43;1.20;;;;;;;;;;5011471;28;20548;-78
2024/03/03 12:22:52;;;;;;;;;;;;;;;;;;5013842;28;20042;-79
2024/03/03 12:25:21;;;;;;;9.90;1.13;;;;;;;;;;5000802;28;19936;-78
2024/03/03 12:27:55;;;;;;;8.48;1.00;;;;;;;;;;5012911;28;20053;-78
2024/03/03 12:30:35;;;;;;;9.73;1.10;;;;;;;;;;5012558;28;20428;-79
2024/03/03 12:33:07;;;;;;;7.65;1.25;;;;;;;;;;5011578;28;20045;-78
2024/03/03 12:35:36;;;;;;;6.32;0.90;;;;;;;;;;5004651;28;20049;-78
2024/03/03 12:38:03;;;;;;;8.75;0.90;;;;;;;;;;5011350;28;20050;-78
2024/03/03 12:40:30;;;;;;;5.32;1.00;;;;;;;;;;5011025;28;20073;-78
2024/03/03 12:42:58;;;;;;;8.07;1.05;;;;;;;;;;5009195;28;20042;-78
2024/03/03 12:45:26;;;;;;;8.75;1.05;;;;;;;;;;5018150;28;20053;-78
2024/03/03 12:47:53;;;;;;;11.27;1.30;;;;;;;;;;5018558;28;20472;-78
2024/03/03 12:50:20;;;;;;;6.05;1.10;;;;;;;;;;5022205;28;20052;-78
2024/03/03 12:52:47;;;;;;;6.93;0.88;;;;;;;;;;5017179;28;20376;-78
2024/03/03 12:55:15;;;;;;;7.05;1.33;;;;;;;;;;5016351;28;20119;-78
2024/03/03 12:57:43;;;;;;;14.83;1.73;;;;;;;;;;5019288;28;20129;-78
2024/03/03 13:00:14;;;;;;;4.32;1.00;;;;;;;;;;5019350;28;20052;-79
2024/03/03 13:02:42;;;;;;;6.25;1.10;;;;;;;;;;5018630;28;20073;-78
2024/03/03 13:05:12;;;;;;;6.85;1.15;;;;;;;;;;5015609;28;20069;-79
2024/03/03 13:07:50;;;;;;;6.22;1.23;;;;;;;;;;5012744;28;20499;-78
2024/03/03 13:10:21;;;;;;;7.53;1.40;;;;;;;;;;4993907;28;20702;-78
2024/03/03 13:12:50;;;;;;;9.65;1.30;;;;;;;;;;5011376;28;20050;-78
2024/03/03 13:15:21;;;;;;;8.77;1.17;;;;;;;;;;5010119;28;20042;-79
2024/03/03 13:18:15;;;;;;;7.28;1.52;;;;;;;;;;5009239;28;20042;-79
2024/03/03 13:20:43;;;;;;;8.48;1.75;;;;;;;;;;5007099;28;20321;-78
2024/03/03 13:23:17;;;;;;;9.25;1.45;;;;;;;;;;5009390;28;20092;-78
2024/03/03 13:25:45;;;;;;;7.25;1.52;;;;;;;;;;5002872;28;20050;-79
2024/03/03 13:28:16;;;;;;;8.73;1.38;;;;;;;;;;5010270;28;20068;-78
2024/03/03 13:31:03;;;;;;;8.45;1.30;;;;;;;;;;5010942;28;20045;-79
2024/03/03 13:33:32;;;;;;;9.93;1.25;;;;;;;;;;5008496;28;20064;-78
2024/03/03 13:36:12;;;;;;;12.10;1.30;;;;;;;;;;5003928;28;20046;-78
2024/03/03 13:38:39;;;;;;;11.00;1.00;;;;;;;;;;4997976;28;20046;-78
2024/03/03 13:41:07;;;;;;;10.70;1.35;;;;;;;;;;5009518;28;20374;-78
2024/03/03 13:43:34;;;;;;;8.63;1.50;;;;;;;;;;5009791;28;20129;-79
2024/03/03 13:46:01;;;;;;;9.50;1.60;;;;;;;;;;5008660;28;20125;-78
2024/03/03 13:48:28;;;;;;;8.00;1.55;;;;;;;;;;5007888;28;20467;-78
2024/03/03 13:50:55;;;;;;;10.13;1.52;;;;;;;;;;4996519;28;20046;-78
2024/03/03 13:53:23;;;;;;;13.25;2.22;;;;;;;;;;4988491;28;20480;-78
2024/03/03 13:55:50;;;;;;;7.88;1.52;;;;;;;;;;5009321;28;20050;-78
2024/03/03 13:58:17;;;;;;;14.63;1.45;;;;;;;;;;5010946;28;20510;-78
2024/03/03 14:00:43;;;;;;;11.02;1.40;;;;;;;;;;5013856;28;20065;-78
2024/03/03 14:03:10;;;;;;;15.77;2.03;;;;;;;;;;5009192;28;20084;-78
2024/03/03 14:05:37;;;;;;;13.13;1.33;;;;;;;;;;5008965;28;20099;-78
2024/03/03 14:08:05;;;;;;;9.88;1.35;;;;;;;;;;5006857;28;20041;-77
2024/03/03 14:10:32;;;;;;;10.98;1.23;;;;;;;;;;5008268;28;20081;-78
2024/03/03 14:12:59;;;;;;;8.63;1.13;;;;;;;;;;5009946;28;20514;-78
2024/03/03 14:15:31;;;;;;;7.85;1.05;;;;;;;;;;5009476;28;20048;-78
2024/03/03 14:17:59;;;;;;;9.88;1.25;;;;;;;;;;5009728;28;20038;-78
2024/03/03 14:20:26;;;;;;;7.82;1.05;;;;;;;;;;5009708;28;20052;-78
2024/03/03 14:22:52;;;;;;;7.30;1.17;;;;;;;;;;5011218;28;20449;-78
2024/03/03 14:25:21;;;;;;;8.50;1.35;;;;;;;;;;5011094;28;20050;-78
2024/03/03 14:27:48;;;;;;;9.32;1.38;;;;;;;;;;5013702;28;20108;-78
2024/03/03 14:30:15;;;;;;;7.28;1.40;;;;;;;;;;5009533;28;20073;-78
2024/03/03 14:32:42;;;;;;;9.60;1.70;;;;;;;;;;5011355;28;20061;-79
2024/03/03 14:35:10;;;;;;;9.27;1.50;;;;;;;;;;5005470;28;20678;-79
2024/03/03 14:37:36;;;;;;;9.40;1.50;;;;;;;;;;5013279;28;20049;-79
2024/03/03 14:40:04;;;;;;;7.97;1.20;;;;;;;;;;5011149;28;20072;-78
2024/03/03 14:42:30;;;;;;;11.70;1.83;;;;;;;;;;5009224;28;20493;-78
2024/03/03 14:44:57;;;;;;;10.38;1.73;;;;;;;;;;5011159;28;20104;-78
2024/03/03 14:47:24;;;;;;;7.65;1.10;;;;;;;;;;5011072;28;20469;-78